Time;durP1;ratioP1;P1;durP2;ratioP2;P2;SDS_P1;SDS_P2;PMS_P1;PMS_P2;Temp;Humidity;BMP_temperature;BMP_pressure;BME280_temperature;BME280_humidity;BME280_pressure;Samples;Min_cycle;Max_cycle;Signal;HPM_P1;HPM_P2
2022/12/29 00:02:20;;;;;;;3.13;2.28;;;10.10;99.90;;;;;;6248077;23;20095;-88
2022/12/29 00:05:37;;;;;;;2.42;1.70;;;10.20;99.90;;;;;;6248097;23;20031;-88
2022/12/29 00:09:10;;;;;;;;;;;;;;;;;;;;;
2022/12/29 00:12:22;;;;;;;;;;;;;;;;;;;;;
2022/12/29 00:18:58;;;;;;;4.65;1.58;;;10.10;99.90;;;;;;6248106;23;20028;-89
2022/12/29 00:36:32;;;;;;;2.53;1.67;;;10.30;99.90;;;;;;6246636;23;20027;-88
2022/12/29 00:47:16;;;;;;;2.22;1.33;;;10.30;99.90;;;;;;6247908;23;20454;-87
2022/12/29 00:50:38;;;;;;;2.05;1.35;;;10.30;99.90;;;;;;6248039;23;20020;-89
2022/12/29 00:54:10;;;;;;;3.50;1.90;;;10.30;99.90;;;;;;6248145;23;20055;-88
2022/12/29 00:57:25;;;;;;;2.10;1.38;;;10.60;99.90;;;;;;6246051;23;20016;-89
2022/12/29 01:00:38;;;;;;;3.67;1.77;;;10.50;99.90;;;;;;6221183;23;20020;-88
2022/12/29 01:03:37;;;;;;;3.15;1.60;;;10.50;99.90;;;;;;6247137;23;20026;-88
2022/12/29 01:07:05;;;;;;;2.30;1.60;;;10.40;99.90;;;;;;6247340;23;20020;-87
2022/12/29 01:10:20;;;;;;;;;;;;;;;;;;;;;
2022/12/29 01:13:40;;;;;;;5.35;1.95;;;10.60;99.90;;;;;;6155082;23;20456;-89
2022/12/29 01:17:00;;;;;;;2.22;1.73;;;10.50;99.90;;;;;;6155265;23;20025;-90
2022/12/29 01:20:28;;;;;;;;;;;;;;;;;;;;;
2022/12/29 01:24:04;;;;;;;;;;;;;;;;;;;;;
2022/12/29 01:27:06;;;;;;;;;;;;;;;;;;;;;
2022/12/29 01:30:35;;;;;;;2.17;1.48;;;10.50;99.90;;;;;;6154655;23;20495;-88
2022/12/29 01:33:38;;;;;;;2.50;1.60;;;10.50;99.90;;;;;;6154259;23;20022;-89
2022/12/29 01:36:38;;;;;;;2.53;2.05;;;10.50;99.90;;;;;;6152618;23;20013;-88
2022/12/29 01:39:26;;;;;;;2.63;1.75;;;10.60;99.90;;;;;;6154466;23;20026;-90
2022/12/29 01:42:38;;;;;;;;;;;;;;;;;;;;;
2022/12/29 01:46:06;;;;;;;;;;;;;;;;;;;;;
2022/12/29 01:49:18;;;;;;;;;;;10.50;99.90;;;;;;6247753;23;20024;-90
2022/12/29 01:52:42;;;;;;;2.75;1.60;;;10.50;99.90;;;;;;6247497;23;19916;-90
2022/12/29 01:56:01;;;;;;;2.40;1.83;;;10.50;99.90;;;;;;6247509;23;20024;-89
2022/12/29 01:59:12;;;;;;;;;;;10.50;99.90;;;;;;6125471;23;20014;-91
2022/12/29 02:02:32;;;;;;;4.03;1.58;;;10.10;99.90;;;;;;6124704;23;19917;-88
2022/12/29 02:06:12;;;;;;;2.67;1.58;;;9.80;99.90;;;;;;6124507;23;20033;-88
2022/12/29 02:09:28;;;;;;;;;;;;;;;;;;;;;
2022/12/29 02:12:28;;;;;;;4.80;1.90;;;10.40;99.90;;;;;;6125319;23;20021;-90
2022/12/29 02:15:42;;;;;;;;;;;;;;;;;;;;;
2022/12/29 02:19:04;;;;;;;4.03;1.80;;;10.50;99.90;;;;;;6125412;23;20102;-91
2022/12/29 02:23:04;;;;;;;2.47;1.50;;;10.30;99.90;;;;;;6124988;23;20030;-91
2022/12/29 02:26:54;;;;;;;;;;;;;;;;;;;;;
2022/12/29 02:30:20;;;;;;;;;;;;;;;;;;;;;
2022/12/29 02:33:42;;;;;;;2.42;1.35;;;10.10;99.90;;;;;;6009675;23;20027;-91
2022/12/29 02:37:02;;;;;;;1.70;1.20;;;10.10;99.90;;;;;;6028981;23;20019;-92
2022/12/29 02:40:20;;;;;;;1.88;0.98;;;10.10;99.90;;;;;;6037976;23;20086;-91
2022/12/29 02:43:37;;;;;;;3.95;1.42;;;10.00;99.90;;;;;;6038311;23;20027;-90
2022/12/29 02:47:10;;;;;;;;;;;;;;;;;;;;;
2022/12/29 02:50:52;;;;;;;;;;;;;;;;;;;;;
2022/12/29 02:57:36;;;;;;;2.60;1.05;;;10.20;99.90;;;;;;6038093;23;20031;-90
2022/12/29 03:00:40;;;;;;;1.48;1.00;;;10.30;99.90;;;;;;6057868;23;20025;-89
2022/12/29 03:04:04;;;;;;;2.03;1.10;;;10.30;99.90;;;;;;6183150;23;20451;-91
2022/12/29 03:07:14;;;;;;;1.98;1.15;;;10.40;99.90;;;;;;6170412;23;20024;-90
2022/12/29 03:10:38;;;;;;;;;;;;;;;;;;;;;
2022/12/29 03:17:54;;;;;;;;;;;;;;;;;;;;;
2022/12/29 03:20:48;;;;;;;1.35;0.77;;;10.40;99.90;;;;;;6046863;23;20405;-89
2022/12/29 03:23:50;;;;;;;;;;;;;;;;;;;;;
2022/12/29 03:27:07;;;;;;;0.70;0.60;;;10.30;99.90;;;;;;6095641;23;20098;-91
2022/12/29 03:30:32;;;;;;;;;;;;;;;;;;;;;
2022/12/29 03:34:00;;;;;;;1.90;0.77;;;10.30;99.90;;;;;;6036912;23;20058;-89
2022/12/29 03:37:18;;;;;;;;;;;;;;;;;;;;;
2022/12/29 03:40:48;;;;;;;3.08;0.80;;;10.30;99.90;;;;;;5981014;24;20119;-90
2022/12/29 03:43:44;;;;;;;2.25;0.68;;;10.40;99.90;;;;;;5934416;24;20022;-89
2022/12/29 03:47:22;;;;;;;1.77;0.77;;;10.10;99.90;;;;;;5971844;23;20060;-89
2022/12/29 03:50:42;;;;;;;2.00;0.80;;;10.80;99.90;;;;;;6009226;23;20056;-89
2022/12/29 03:53:48;;;;;;;1.88;0.73;;;10.30;99.90;;;;;;6009303;23;20463;-88
2022/12/29 03:56:18;;;;;;;2.95;1.02;;;9.50;99.90;;;;;;6008845;23;20030;-88
2022/12/29 03:59:36;;;;;;;0.95;0.70;;;10.20;99.90;;;;;;6009386;23;20024;-90
2022/12/29 04:03:06;;;;;;;1.35;0.80;;;10.10;99.90;;;;;;6065933;23;20437;-89
2022/12/29 04:06:00;;;;;;;3.88;0.80;;;10.20;99.90;;;;;;5994413;23;20054;-88
2022/12/29 04:09:01;;;;;;;2.22;0.80;;;10.50;99.90;;;;;;6093360;23;20084;-88
2022/12/29 04:12:22;;;;;;;;;;;;;;;;;;;;;
2022/12/29 04:15:42;;;;;;;1.95;0.57;;;10.70;99.90;;;;;;6125340;23;20061;-87
2022/12/29 04:18:59;;;;;;;;;;;;;;;;;;;;;
2022/12/29 04:22:19;;;;;;;;;;;;;;;;;;;;;
2022/12/29 04:25:54;;;;;;;;;;;;;;;;;;;;;
2022/12/29 04:29:26;;;;;;;;;;;;;;;;;;;;;
2022/12/29 04:32:40;;;;;;;;;;;;;;;;;;;;;
2022/12/29 04:35:52;;;;;;;;;;;;;;;;;;;;;
2022/12/29 04:39:16;;;;;;;;;;;;;;;;;;;;;
2022/12/29 04:42:27;;;;;;;;;;;;;;;;;;;;;
2022/12/29 04:45:45;;;;;;;;;;;;;;;;;;;;;
2022/12/29 04:48:58;;;;;;;8.52;0.50;;;10.00;99.90;;;;;;6038560;23;20034;-88
2022/12/29 04:52:22;;;;;;;;;;;;;;;;;;;;;
2022/12/29 04:55:42;;;;;;;5.28;0.57;;;10.00;99.90;;;;;;6039017;23;20023;-89
2022/12/29 04:58:30;;;;;;;1.33;0.45;;;9.90;99.90;;;;;;6038431;23;20027;-88
2022/12/29 05:01:43;;;;;;;3.08;0.30;;;9.90;99.90;;;;;;6037972;23;20106;-89
2022/12/29 05:04:54;;;;;;;;;;;;;;;;;;;;;
2022/12/29 05:08:22;;;;;;;;;;;;;;;;;;;;;
2022/12/29 05:11:50;;;;;;;;;;;;;;;;;;;;;
2022/12/29 05:15:12;;;;;;;3.67;0.70;;;9.80;99.90;;;;;;6038501;23;20099;-90
2022/12/29 05:18:30;;;;;;;3.15;0.30;;;9.70;99.90;;;;;;6154737;23;20076;-88
2022/12/29 05:22:00;;;;;;;;;;;;;;;;;;;;;
2022/12/29 05:25:14;;;;;;;;;;;;;;;;;;;;;
2022/12/29 05:28:00;;;;;;;5.90;0.52;;;9.70;99.90;;;;;;6244119;23;20030;-88
2022/12/29 05:31:26;;;;;;;9.23;0.77;;;9.60;99.90;;;;;;6247242;23;20342;-89
2022/12/29 05:34:55;;;;;;;;;;;;;;;;;;;;;
2022/12/29 05:38:10;;;;;;;6.30;0.70;;;9.60;99.90;;;;;;6245299;23;20488;-88
2022/12/29 05:41:36;;;;;;;;;;;;;;;;;;;;;
2022/12/29 05:44:51;;;;;;;;;;;;;;;;;;;;;
2022/12/29 05:48:20;;;;;;;7.90;0.75;;;9.50;99.90;;;;;;6247808;23;20031;-87
2022/12/29 05:51:44;;;;;;;5.07;0.90;;;9.50;99.90;;;;;;6247317;23;20024;-89
2022/12/29 05:55:08;;;;;;;7.53;1.23;;;9.40;99.90;;;;;;6247095;23;20024;-87
2022/12/29 05:58:04;;;;;;;5.38;0.77;;;9.50;99.90;;;;;;6213681;23;20017;-88
2022/12/29 06:01:36;;;;;;;;;;;;;;;;;;;;;
2022/12/29 06:04:54;;;;;;;;;;;;;;;;;;;;;
2022/12/29 06:08:22;;;;;;;;;;;;;;;;;;;;;
2022/12/29 06:11:46;;;;;;;;;;;;;;;;;;;;;
2022/12/29 06:15:18;;;;;;;;;;;;;;;;;;;;;
2022/12/29 06:18:42;;;;;;;6.80;1.10;;;9.40;99.90;;;;;;6213886;23;20024;-90
2022/12/29 06:21:56;;;;;;;5.80;0.68;;;9.40;99.90;;;;;;6213992;23;20439;-90
2022/12/29 06:25:06;;;;;;;7.35;0.70;;;9.40;99.90;;;;;;6213181;23;20030;-89
2022/12/29 06:28:04;;;;;;;6.07;0.90;;;9.50;99.90;;;;;;6189565;23;20074;-89
2022/12/29 06:31:43;;;;;;;5.45;0.70;;;9.10;99.90;;;;;;6246171;23;20024;-89
2022/12/29 06:35:07;;;;;;;6.43;0.90;;;9.50;99.90;;;;;;6246351;23;20024;-90
2022/12/29 06:38:36;;;;;;;;;;;;;;;;;;;;;
2022/12/29 06:41:50;;;;;;;5.72;0.70;;;9.50;99.90;;;;;;6246287;23;20407;-88
2022/12/29 06:45:18;;;;;;;;;;;;;;;;;;;;;
2022/12/29 06:48:52;;;;;;;4.95;0.88;;;10.00;99.90;;;;;;6246244;23;20058;-90
2022/12/29 06:52:04;;;;;;;;;;;;;;;;;;;;;
2022/12/29 06:55:28;;;;;;;10.07;1.27;;;9.40;99.90;;;;;;6246229;23;20059;-88
2022/12/29 06:58:54;;;;;;;13.75;1.08;;;9.50;99.90;;;;;;6246167;23;20020;-86
2022/12/29 07:02:08;;;;;;;10.20;0.95;;;9.40;99.90;;;;;;6243714;23;20016;-88
2022/12/29 07:05:10;;;;;;;10.65;1.33;;;9.30;99.90;;;;;;6246042;23;20016;-87
2022/12/29 07:08:13;;;;;;;8.38;0.90;;;9.30;99.90;;;;;;6246243;23;20051;-92
2022/12/29 07:11:26;;;;;;;5.50;0.80;;;9.40;99.90;;;;;;6246777;23;20027;-93
2022/12/29 07:14:50;;;;;;;8.10;1.00;;;9.10;99.90;;;;;;6248181;23;20030;-92
2022/12/29 07:18:04;;;;;;;11.32;1.80;;;9.40;99.90;;;;;;6214443;23;20528;-90
2022/12/29 07:21:16;;;;;;;;;;;;;;;;;;;;;
2022/12/29 07:24:38;;;;;;;;;;;;;;;;;;;;;
2022/12/29 07:27:44;;;;;;;12.23;1.30;;;9.40;99.90;;;;;;6215217;23;19983;-91
2022/12/29 07:30:56;;;;;;;;;;;;;;;;;;;;;
2022/12/29 07:33:48;;;;;;;7.35;0.93;;;9.40;99.90;;;;;;6183503;23;20367;-88
2022/12/29 07:36:34;;;;;;;8.13;1.08;;;9.40;99.90;;;;;;6133479;23;20064;-90
2022/12/29 07:39:46;;;;;;;4.90;0.98;;;9.60;99.90;;;;;;6158077;23;20017;-87
2022/12/29 07:43:02;;;;;;;;;;;9.30;99.90;;;;;;6183743;23;20082;-91
2022/12/29 07:46:16;;;;;;;;;;;;;;;;;;;;;
2022/12/29 07:53:13;;;;;;;;;;;;;;;;;;;;;
2022/12/29 08:00:22;;;;;;;;;;;;;;;;;;;;;
2022/12/29 08:03:06;;;;;;;9.98;0.88;;;9.60;99.90;;;;;;6041861;23;20053;-93
2022/12/29 08:05:57;;;;;;;8.02;0.98;;;9.50;99.90;;;;;;6042516;23;20027;-90
2022/12/29 08:09:03;;;;;;;;;;;;;;;;;;;;;
2022/12/29 08:11:48;;;;;;;11.50;1.05;;;9.70;99.90;;;;;;6042160;23;20026;-88
2022/12/29 08:14:25;;;;;;;5.50;0.93;;;9.30;99.90;;;;;;6066802;23;20014;-88
2022/12/29 08:17:14;;;;;;;;;;;;;;;;;;;;;
2022/12/29 08:20:12;;;;;;;;;;;;;;;;;;;;;
2022/12/29 08:23:10;;;;;;;;;;;;;;;;;;;;;
2022/12/29 08:26:22;;;;;;;8.13;1.25;;;9.50;99.90;;;;;;6100664;23;20044;-86
2022/12/29 08:29:23;;;;;;;8.02;0.95;;;9.60;99.90;;;;;;6141749;23;20032;-88
2022/12/29 08:32:30;;;;;;;;;;;;;;;;;;;;;
2022/12/29 08:35:21;;;;;;;6.32;1.00;;;9.50;99.90;;;;;;6220375;23;20059;-87
2022/12/29 08:38:18;;;;;;;7.72;1.17;;;9.80;99.90;;;;;;6220942;23;20016;-90
2022/12/29 08:41:19;;;;;;;9.48;1.33;;;9.60;99.90;;;;;;6220706;23;20047;-91
2022/12/29 08:44:06;;;;;;;6.32;0.95;;;8.70;99.90;;;;;;6247816;23;20465;-87
2022/12/29 08:47:19;;;;;;;15.80;1.48;;;9.40;99.90;;;;;;6247817;23;20035;-87
2022/12/29 08:50:06;;;;;;;13.38;1.33;;;9.60;99.90;;;;;;6247686;23;20020;-90
2022/12/29 08:53:20;;;;;;;6.20;1.00;;;9.50;99.90;;;;;;6247961;23;20023;-90
2022/12/29 08:56:08;;;;;;;14.90;1.10;;;9.40;99.90;;;;;;6247949;23;20024;-89
2022/12/29 08:59:14;;;;;;;;;;;;;;;;;;;;;
2022/12/29 09:02:01;;;;;;;9.38;1.30;;;9.40;99.90;;;;;;6247963;23;20012;-89
2022/12/29 09:05:09;;;;;;;;;;;;;;;;;;;;;
2022/12/29 09:08:13;;;;;;;;;;;;;;;;;;;;;
2022/12/29 09:11:09;;;;;;;12.07;1.52;;;9.40;99.90;;;;;;6220252;23;20434;-89
2022/12/29 09:14:25;;;;;;;10.43;1.00;;;9.40;99.90;;;;;;6247377;23;20034;-87
2022/12/29 09:20:41;;;;;;;10.10;1.40;;;9.50;99.90;;;;;;6247246;23;20024;-89
2022/12/29 09:23:35;;;;;;;;;;;;;;;;;;;;;
2022/12/29 09:26:47;;;;;;;12.95;1.75;;;9.20;99.90;;;;;;6247926;23;20063;-90
2022/12/29 09:29:44;;;;;;;13.27;1.00;;;9.40;99.90;;;;;;6227044;23;20031;-88
2022/12/29 09:33:01;;;;;;;12.43;1.08;;;9.30;99.90;;;;;;6247577;23;20345;-89
2022/12/29 09:36:01;;;;;;;14.55;1.48;;;9.80;99.90;;;;;;6246901;23;20045;-90
2022/12/29 09:39:09;;;;;;;;;;;;;;;;;;;;;
2022/12/29 09:42:42;;;;;;;12.75;1.20;;;9.40;99.90;;;;;;6247693;23;20024;-89
2022/12/29 09:45:59;;;;;;;10.98;1.00;;;9.30;99.90;;;;;;6214446;23;20024;-88
2022/12/29 09:52:38;;;;;;;12.93;1.50;;;9.30;99.90;;;;;;6215037;23;19918;-91
2022/12/29 09:56:04;;;;;;;13.35;1.55;;;9.30;99.90;;;;;;6214732;23;20029;-89
2022/12/29 09:59:42;;;;;;;;;;;;;;;;;;;;;
2022/12/29 10:03:08;;;;;;;8.27;1.15;;;9.20;99.90;;;;;;6215004;23;20529;-90
2022/12/29 10:06:44;;;;;;;4.78;0.82;;;9.30;99.90;;;;;;6214495;23;20104;-90
2022/12/29 10:10:16;;;;;;;7.43;1.20;;;9.20;99.90;;;;;;6124831;23;20032;-90
2022/12/29 10:13:34;;;;;;;6.68;1.25;;;9.20;99.90;;;;;;6099427;23;20022;-88
2022/12/29 10:16:48;;;;;;;6.20;1.35;;;9.20;99.90;;;;;;6137039;23;20104;-91
2022/12/29 10:20:18;;;;;;;;;;;;;;;;;;;;;
2022/12/29 10:23:09;;;;;;;3.88;0.80;;;9.20;99.90;;;;;;6095626;23;20458;-88
2022/12/29 10:25:56;;;;;;;;;;;9.10;99.90;;;;;;6095949;23;20014;-91
2022/12/29 10:36:06;;;;;;;6.72;0.80;;;8.90;99.90;;;;;;5925913;24;20255;-88
2022/12/29 10:39:18;;;;;;;;;;;;;;;;;;;;;
2022/12/29 10:42:42;;;;;;;;;;;;;;;;;;;;;
2022/12/29 10:45:50;;;;;;;3.53;0.57;;;9.00;99.90;;;;;;5954781;24;20032;-89
2022/12/29 10:52:12;;;;;;;;;;;;;;;;;;;;;
2022/12/29 10:55:18;;;;;;;10.80;1.67;;;9.00;99.90;;;;;;5956731;23;20062;-89
2022/12/29 10:58:26;;;;;;;;;;;;;;;;;;;;;
2022/12/29 11:01:34;;;;;;;9.10;1.20;;;9.20;99.90;;;;;;5980972;24;20065;-88
2022/12/29 11:04:42;;;;;;;11.27;0.95;;;8.90;99.90;;;;;;5980763;24;20031;-88
2022/12/29 11:07:38;;;;;;;5.40;0.80;;;9.00;99.90;;;;;;5992610;23;20156;-87
2022/12/29 11:11:00;;;;;;;;;;;;;;;;;;;;;
2022/12/29 11:14:05;;;;;;;5.88;0.80;;;9.00;99.90;;;;;;6083865;23;20360;-87
2022/12/29 11:16:35;;;;;;;11.27;1.20;;;9.00;99.90;;;;;;6094198;23;20484;-86
2022/12/29 11:19:27;;;;;;;14.20;1.70;;;8.90;99.90;;;;;;6046760;23;20026;-87
2022/12/29 11:22:37;;;;;;;10.93;1.60;;;9.10;99.90;;;;;;6069308;23;20019;-89
2022/12/29 11:25:41;;;;;;;10.57;1.88;;;9.20;99.90;;;;;;5982990;23;20056;-86
2022/12/29 11:28:37;;;;;;;15.45;2.08;;;8.80;99.90;;;;;;6069868;23;20023;-90
2022/12/29 11:31:59;;;;;;;;;;;;;;;;;;;;;
2022/12/29 11:35:07;;;;;;;;;;;;;;;;;;;;;
2022/12/29 11:38:37;;;;;;;;;;;;;;;;;;;;;
2022/12/29 11:41:48;;;;;;;13.98;1.20;;;9.90;99.90;;;;;;6031063;23;20026;-89
2022/12/29 11:45:00;;;;;;;;;;;;;;;;;;;;;
2022/12/29 11:47:59;;;;;;;13.10;2.00;;;9.30;99.90;;;;;;6041535;23;20487;-89
2022/12/29 11:54:15;;;;;;;15.82;2.47;;;9.20;99.90;;;;;;6065617;23;20099;-88
2022/12/29 11:57:29;;;;;;;12.23;1.63;;;9.30;99.90;;;;;;6065096;23;20086;-87
2022/12/29 12:00:44;;;;;;;;;;;;;;;;;;;;;
2022/12/29 12:03:51;;;;;;;9.93;1.10;;;9.30;99.90;;;;;;5992290;23;20534;-88
2022/12/29 12:07:01;;;;;;;;;;;;;;;;;;;;;
2022/12/29 12:13:40;;;;;;;9.65;1.25;;;9.20;99.90;;;;;;6036814;23;20481;-88
2022/12/29 12:16:33;;;;;;;12.45;1.10;;;9.20;99.90;;;;;;6035954;23;20023;-88
2022/12/29 12:19:49;;;;;;;12.50;1.58;;;9.10;99.90;;;;;;5984552;23;20015;-89
2022/12/29 12:22:38;;;;;;;11.63;0.93;;;9.10;99.90;;;;;;5984205;23;20107;-88
2022/12/29 12:25:18;;;;;;;5.70;1.10;;;9.10;99.90;;;;;;5983884;23;20031;-88
2022/12/29 12:28:09;;;;;;;6.10;0.80;;;9.10;99.90;;;;;;6008084;23;20064;-85
2022/12/29 12:30:48;;;;;;;11.63;1.13;;;9.00;99.90;;;;;;5959062;23;20021;-87
2022/12/29 12:33:41;;;;;;;4.93;0.80;;;9.00;99.90;;;;;;5951979;24;20105;-87
2022/12/29 12:36:21;;;;;;;6.72;1.33;;;8.90;99.90;;;;;;5952110;24;20020;-86
2022/12/29 12:38:50;;;;;;;11.60;0.95;;;9.00;99.90;;;;;;5952062;24;20028;-86
2022/12/29 12:41:49;;;;;;;5.80;0.88;;;9.10;99.90;;;;;;5992575;23;20027;-86
2022/12/29 12:44:51;;;;;;;5.75;0.70;;;9.10;99.90;;;;;;5984724;23;20062;-87
2022/12/29 12:47:27;;;;;;;10.95;0.90;;;9.10;99.90;;;;;;6001143;23;20027;-87
2022/12/29 12:50:20;;;;;;;9.35;0.60;;;9.20;99.90;;;;;;6037316;23;20188;-88
2022/12/29 12:53:27;;;;;;;2.80;1.15;;;9.20;99.90;;;;;;6036664;23;20035;-87
2022/12/29 12:56:09;;;;;;;5.20;0.50;;;9.20;99.90;;;;;;6038152;23;20027;-87
2022/12/29 12:58:56;;;;;;;4.57;0.52;;;9.10;99.90;;;;;;6131505;23;20020;-87
2022/12/29 13:01:38;;;;;;;4.97;0.60;;;9.10;99.90;;;;;;6217181;23;20047;-86
2022/12/29 13:04:39;;;;;;;6.22;0.65;;;9.00;99.90;;;;;;6216927;23;20316;-85
2022/12/29 13:08:26;;;;;;;;;;;;;;;;;;;;;
2022/12/29 13:15:58;;;;;;;3.60;0.60;;;9.60;99.90;;;;;;6017548;23;20035;-88
2022/12/29 13:22:20;;;;;;;;;;;;;;;;;;;;;
2022/12/29 13:25:34;;;;;;;6.05;1.55;;;9.10;99.90;;;;;;5922840;23;20012;-88
2022/12/29 13:57:11;;;;;;;9.07;1.45;;;9.00;99.90;;;;;;6184184;23;20024;-89
2022/12/29 14:18:21;;;;;;;6.78;0.50;;;8.70;99.90;;;;;;6213138;22;20490;-89
2022/12/29 14:41:32;;;;;;;;;;;;;;;;;;;;;
2022/12/29 15:13:48;;;;;;;;;;;;;;;;;;;;;
2022/12/29 15:17:26;;;;;;;9.63;1.35;;;8.00;99.90;;;;;;6183245;23;20354;-89
2022/12/29 15:33:07;;;;;;;6.63;0.68;;;8.10;99.90;;;;;;5843871;24;20037;-89
2022/12/29 15:36:41;;;;;;;;;;;8.00;99.90;;;;;;4309067;27;32579229;-89
2022/12/29 15:40:10;;;;;;;;;;;;;;;;;;;;;
2022/12/29 15:45:50;;;;;;;3.00;0.55;;;8.00;99.90;;;;;;5126114;22;20113;-89
2022/12/29 15:49:04;;;;;;;;;;;;;;;;;;;;;
2022/12/29 15:56:34;;;;;;;;;;;;;;;;;;;;;
2022/12/29 16:03:42;;;;;;;2.85;0.60;;;7.90;99.90;;;;;;4830716;29;20050;-87
2022/12/29 16:07:16;;;;;;;7.05;0.80;;;7.80;99.90;;;;;;4824377;29;20491;-87
2022/12/29 16:10:58;;;;;;;;;;;;;;;;;;;;;
2022/12/29 16:14:34;;;;;;;7.22;0.85;;;7.80;99.90;;;;;;4800958;29;20051;-85
2022/12/29 16:18:06;;;;;;;4.88;1.08;;;8.00;99.90;;;;;;4801161;29;20548;-87
2022/12/29 16:21:15;;;;;;;5.90;0.43;;;7.90;99.90;;;;;;4785025;29;20138;-87
2022/12/29 16:24:14;;;;;;;;;;;;;;;;;;;;;
2022/12/29 16:27:30;;;;;;;;;;;;;;;;;;;;;
2022/12/29 16:31:00;;;;;;;;;;;;;;;;;;;;;
2022/12/29 16:34:56;;;;;;;;;;;;;;;;;;;;;
2022/12/29 16:52:10;;;;;;;3.75;0.55;;;7.50;99.90;;;;;;5067400;28;20123;-89
2022/12/29 16:59:52;;;;;;;2.95;0.60;;;7.20;99.90;;;;;;5116976;28;20043;-88
2022/12/29 17:21:08;;;;;;;4.22;0.63;;;8.00;99.90;;;;;;5075369;28;20052;-92
2022/12/29 17:24:46;;;;;;;;;;;;;;;;;;;;;
2022/12/29 17:28:01;;;;;;;;;;;;;;;;;;;;;
2022/12/29 17:31:14;;;;;;;;;;;;;;;;;;;;;
2022/12/29 17:38:38;;;;;;;;;;;;;;;;;;;;;
2022/12/29 17:41:48;;;;;;;8.48;0.75;;;7.10;99.90;;;;;;5021093;28;20097;-91
2022/12/29 17:45:02;;;;;;;4.95;0.73;;;7.10;99.90;;;;;;5056920;28;20048;-88
2022/12/29 17:48:14;;;;;;;;;;;;;;;;;;;;;
2022/12/29 17:51:35;;;;;;;8.27;1.00;;;7.10;99.90;;;;;;5074317;28;20047;-87
2022/12/29 17:54:30;;;;;;;;;;;;;;;;;;;;;
2022/12/29 17:57:52;;;;;;;11.10;1.00;;;7.20;99.90;;;;;;4952130;28;20052;-86
2022/12/29 18:01:15;;;;;;;5.43;1.27;;;7.50;99.90;;;;;;4972126;28;20059;-91
2022/12/29 18:04:22;;;;;;;;;;;;;;;;;;;;;
2022/12/29 18:07:43;;;;;;;8.00;1.60;;;7.30;99.90;;;;;;4974554;28;20155;-91
2022/12/29 18:11:04;;;;;;;7.00;0.80;;;7.30;99.90;;;;;;4974022;28;20055;-89
2022/12/29 18:14:26;;;;;;;8.18;0.82;;;7.30;99.90;;;;;;4957403;28;20051;-87
2022/12/29 18:17:48;;;;;;;;;;;;;;;;;;;;;
2022/12/29 18:21:20;;;;;;;;;;;;;;;;;;;;;
2022/12/29 18:24:13;;;;;;;6.38;1.10;;;6.70;99.90;;;;;;4973866;28;20047;-91
2022/12/29 18:26:41;;;;;;;7.50;1.50;;;7.40;99.90;;;;;;4971072;28;20403;-86
2022/12/29 18:29:11;;;;;;;4.55;1.25;;;7.40;99.90;;;;;;4973205;28;20373;-87
2022/12/29 18:31:46;;;;;;;5.57;0.80;;;7.30;99.90;;;;;;5043731;28;20540;-88
2022/12/29 18:34:15;;;;;;;16.60;1.30;;;7.30;99.90;;;;;;5054315;28;20045;-88
2022/12/29 18:36:46;;;;;;;8.88;1.00;;;7.30;99.90;;;;;;5053618;28;20072;-89
2022/12/29 18:39:14;;;;;;;16.08;2.90;;;7.30;99.90;;;;;;5036302;28;20053;-89
2022/12/29 18:41:43;;;;;;;8.70;0.90;;;7.30;99.90;;;;;;5054162;28;20378;-84
2022/12/29 18:44:13;;;;;;;4.28;1.02;;;7.30;99.90;;;;;;5053866;28;20456;-85
2022/12/29 18:46:39;;;;;;;13.07;1.15;;;7.30;99.90;;;;;;5053040;28;20095;-87
2022/12/29 18:49:06;;;;;;;8.95;1.20;;;7.30;99.90;;;;;;5053382;28;20076;-89
2022/12/29 18:51:39;;;;;;;8.75;1.48;;;7.20;99.90;;;;;;5053717;28;20473;-90
2022/12/29 18:54:23;;;;;;;10.70;1.42;;;7.20;99.90;;;;;;5036435;28;20461;-90
2022/12/29 18:56:54;;;;;;;5.97;0.98;;;7.20;99.90;;;;;;5052711;28;20040;-88
2022/12/29 18:59:36;;;;;;;9.02;1.20;;;7.20;99.90;;;;;;5035770;28;20120;-87
2022/12/29 19:02:17;;;;;;;9.50;1.35;;;7.20;99.90;;;;;;5053337;28;20122;-90
2022/12/29 19:04:44;;;;;;;4.10;0.82;;;7.30;99.90;;;;;;5053542;28;20033;-89
2022/12/29 19:07:16;;;;;;;7.85;1.25;;;7.10;99.90;;;;;;5051685;28;20049;-88
2022/12/29 19:09:46;;;;;;;7.53;0.85;;;7.10;99.90;;;;;;5053317;28;20045;-91
2022/12/29 19:12:21;;;;;;;3.88;0.82;;;7.10;99.90;;;;;;5053285;28;20056;-89
2022/12/29 19:14:49;;;;;;;7.82;0.80;;;7.00;99.90;;;;;;5034445;28;20582;-92
2022/12/29 19:17:22;;;;;;;4.25;0.77;;;7.00;99.90;;;;;;5037089;28;20084;-88
2022/12/29 19:19:50;;;;;;;5.05;0.80;;;7.00;99.90;;;;;;5045173;28;20045;-88
2022/12/29 19:22:22;;;;;;;12.80;1.33;;;7.10;99.90;;;;;;5049199;28;20543;-88
2022/12/29 19:24:51;;;;;;;9.95;1.25;;;7.10;99.90;;;;;;5033494;28;20458;-92
2022/12/29 19:27:23;;;;;;;8.07;1.17;;;7.10;99.90;;;;;;5037709;28;20170;-86
2022/12/29 19:29:54;;;;;;;6.55;0.80;;;7.00;99.90;;;;;;5050586;28;20051;-90
2022/12/29 19:33:01;;;;;;;;;;;;;;;;;;;;;
2022/12/29 19:36:18;;;;;;;6.82;0.82;;;7.10;99.90;;;;;;5050684;28;20573;-88
2022/12/29 19:39:20;;;;;;;8.63;1.17;;;6.40;99.90;;;;;;5054153;28;20053;-90
2022/12/29 19:42:12;;;;;;;6.60;0.80;;;7.00;99.90;;;;;;5053820;28;20049;-91
2022/12/29 19:45:46;;;;;;;5.57;1.00;;;7.00;99.90;;;;;;5217419;22;20068;-90
2022/12/29 19:48:44;;;;;;;10.25;1.58;;;7.00;99.90;;;;;;4951912;28;20065;-92
2022/12/29 19:51:18;;;;;;;11.98;1.10;;;7.10;99.90;;;;;;4956404;28;20061;-89
2022/12/29 19:53:52;;;;;;;11.48;0.93;;;6.90;99.90;;;;;;4956591;28;20058;-89
2022/12/29 19:56:24;;;;;;;11.18;1.10;;;7.00;99.90;;;;;;4956076;28;20170;-91
2022/12/29 19:59:02;;;;;;;8.23;0.90;;;6.90;99.90;;;;;;4972493;28;20046;-90
2022/12/29 20:02:03;;;;;;;4.70;1.00;;;6.90;99.90;;;;;;4955872;28;20097;-88
2022/12/29 20:05:08;;;;;;;2.83;0.73;;;6.90;99.90;;;;;;4953333;29;20106;-90
2022/12/29 20:08:01;;;;;;;13.52;1.30;;;6.90;99.90;;;;;;4953577;29;20420;-91
2022/12/29 20:10:43;;;;;;;7.97;2.47;;;6.90;99.90;;;;;;4937417;28;20449;-89
2022/12/29 20:13:21;;;;;;;5.03;1.08;;;6.90;99.90;;;;;;4953207;29;20176;-89
2022/12/29 20:16:46;;;;;;;12.82;1.92;;;7.00;99.90;;;;;;4937355;29;20052;-88
2022/12/29 20:20:02;;;;;;;11.95;1.45;;;7.00;99.90;;;;;;4920708;29;20051;-92
2022/12/29 20:22:31;;;;;;;9.13;1.15;;;6.90;99.90;;;;;;4895383;29;20059;-90
2022/12/29 20:25:46;;;;;;;;;;;;;;;;;;;;;
2022/12/29 20:32:30;;;;;;;;;;;;;;;;;;;;;
2022/12/29 20:36:07;;;;;;;11.73;1.63;;;8.00;99.90;;;;;;4998068;28;20394;-90
2022/12/29 20:39:06;;;;;;;10.32;1.45;;;7.00;99.90;;;;;;5022016;28;20390;-92
2022/12/29 20:42:00;;;;;;;7.57;1.20;;;6.90;99.90;;;;;;5039171;28;20105;-91
2022/12/29 20:45:11;;;;;;;7.57;1.27;;;6.90;99.90;;;;;;5024269;28;20052;-90
2022/12/29 20:52:52;;;;;;;;;;;;;;;;;;;;;
2022/12/29 20:56:35;;;;;;;15.05;2.15;;;6.90;99.90;;;;;;4997749;28;20050;-90
2022/12/29 21:00:04;;;;;;;;;;;;;;;;;;;;;
2022/12/29 21:03:09;;;;;;;18.90;4.15;;;6.90;99.90;;;;;;4997271;28;20069;-91
2022/12/29 21:06:20;;;;;;;;;;;;;;;;;;;;;
2022/12/29 21:09:03;;;;;;;18.40;3.33;;;6.80;99.90;;;;;;5013692;28;20057;-88
2022/12/29 21:12:08;;;;;;;13.32;2.38;;;6.80;99.90;;;;;;5013745;28;20034;-92
2022/12/29 21:15:41;;;;;;;11.70;2.15;;;6.90;99.90;;;;;;5013995;28;20046;-91
2022/12/29 21:18:50;;;;;;;;;;;;;;;;;;;;;
2022/12/29 21:22:32;;;;;;;;;;;;;;;;;;;;;
2022/12/29 21:25:54;;;;;;;;;;;;;;;;;;;;;
2022/12/29 21:32:19;;;;;;;13.73;1.35;;;6.80;99.90;;;;;;4898181;29;20548;-92
2022/12/29 21:39:03;;;;;;;;;;;;;;;;;;;;;
2022/12/29 21:42:23;;;;;;;12.40;1.63;;;6.80;99.90;;;;;;5168952;22;20408;-90
2022/12/29 21:49:02;;;;;;;13.55;1.77;;;6.90;99.90;;;;;;5033323;28;20112;-91
2022/12/29 21:52:34;;;;;;;7.65;1.70;;;6.90;99.90;;;;;;5032988;28;20092;-88
2022/12/29 21:55:47;;;;;;;12.48;1.35;;;6.80;99.90;;;;;;5016122;28;20052;-88
2022/12/29 22:13:26;;;;;;;10.63;1.40;;;6.90;99.90;;;;;;5053043;28;20076;-86
2022/12/29 22:16:35;;;;;;;4.85;1.20;;;6.30;99.90;;;;;;5050470;28;20138;-88
2022/12/29 22:19:17;;;;;;;;;;;7.30;99.90;;;;;;5054623;28;20040;-89
2022/12/29 22:25:56;;;;;;;6.25;1.02;;;6.60;99.90;;;;;;5010733;28;20048;-88
2022/12/29 22:29:32;;;;;;;;;;;;;;;;;;;;;
2022/12/29 22:40:35;;;;;;;11.73;1.48;;;6.80;99.90;;;;;;4918791;29;20098;-89
2022/12/29 22:44:06;;;;;;;;;;;;;;;;;;;;;
2022/12/29 22:47:22;;;;;;;5.75;1.30;;;6.60;99.90;;;;;;4829900;29;20684;-88
2022/12/29 22:50:05;;;;;;;10.45;1.35;;;6.60;99.90;;;;;;4788947;29;20560;-88
2022/12/29 22:53:01;;;;;;;11.52;1.60;;;6.60;99.90;;;;;;4788765;29;20047;-90
2022/12/29 23:49:47;;;;;;;11.68;0.85;;;6.00;99.90;;;;;;5663331;24;20063;-90
